sensor_id;sensor_type;location;lat;lon;timestamp;pressure;altitude;pressure_sealevel;temperature
71630;BMP280;59479;51.902;8.212;2023-03-17T00:01:10;100505.72;;;8.04
71630;BMP280;59479;51.902;8.212;2023-03-17T00:03:38;100517.44;;;8.08
71630;BMP280;59479;51.902;8.212;2023-03-17T00:06:05;100521.66;;;8.14
71630;BMP280;59479;51.902;8.212;2023-03-17T00:08:33;100513.25;;;8.09
71630;BMP280;59479;51.902;8.212;2023-03-17T00:11:00;100502.38;;;8.07
71630;BMP280;59479;51.902;8.212;2023-03-17T00:13:25;100509.91;;;8.07
71630;BMP280;59479;51.902;8.212;2023-03-17T00:15:53;100508.22;;;8.04
71630;BMP280;59479;51.902;8.212;2023-03-17T00:18:20;100511.56;;;8.05
71630;BMP280;59479;51.902;8.212;2023-03-17T00:20:46;100497.34;;;7.99
71630;BMP280;59479;51.902;8.212;2023-03-17T00:23:20;100493.19;;;8.01
71630;BMP280;59479;51.902;8.212;2023-03-17T00:25:47;100486.50;;;8.03
71630;BMP280;59479;51.902;8.212;2023-03-17T00:28:22;100490.69;;;8.03
71630;BMP280;59479;51.902;8.212;2023-03-17T00:31:12;100490.63;;;7.95
71630;BMP280;59479;51.902;8.212;2023-03-17T00:33:38;100481.47;;;7.96
71630;BMP280;59479;51.902;8.212;2023-03-17T00:36:04;100476.47;;;8.00
71630;BMP280;59479;51.902;8.212;2023-03-17T00:38:30;100472.25;;;7.93
71630;BMP280;59479;51.902;8.212;2023-03-17T00:40:55;100467.22;;;7.92
71630;BMP280;59479;51.902;8.212;2023-03-17T00:43:21;100466.41;;;7.93
71630;BMP280;59479;51.902;8.212;2023-03-17T00:45:46;100473.97;;;7.96
71630;BMP280;59479;51.902;8.212;2023-03-17T00:48:17;100472.28;;;7.95
71630;BMP280;59479;51.902;8.212;2023-03-17T00:50:44;100473.13;;;7.97
71630;BMP280;59479;51.902;8.212;2023-03-17T00:53:14;100476.47;;;7.97
71630;BMP280;59479;51.902;8.212;2023-03-17T00:55:41;100471.50;;;8.02
71630;BMP280;59479;51.902;8.212;2023-03-17T00:58:23;100468.16;;;8.03
71630;BMP280;59479;51.902;8.212;2023-03-17T01:00:49;100466.47;;;8.00
71630;BMP280;59479;51.902;8.212;2023-03-17T01:03:15;100471.50;;;8.03
71630;BMP280;59479;51.902;8.212;2023-03-17T01:05:40;100462.38;;;8.08
71630;BMP280;59479;51.902;8.212;2023-03-17T01:08:07;100474.88;;;8.04
71630;BMP280;59479;51.902;8.212;2023-03-17T01:10:33;100481.53;;;8.06
71630;BMP280;59479;51.902;8.212;2023-03-17T01:12:59;100481.53;;;8.05
71630;BMP280;59479;51.902;8.212;2023-03-17T01:15:27;100478.22;;;8.06
71630;BMP280;59479;51.902;8.212;2023-03-17T01:17:53;100493.22;;;8.06
71630;BMP280;59479;51.902;8.212;2023-03-17T01:20:21;100494.13;;;8.11
71630;BMP280;59479;51.902;8.212;2023-03-17T01:22:48;100490.75;;;8.07
71630;BMP280;59479;51.902;8.212;2023-03-17T01:25:15;100489.06;;;8.08
71630;BMP280;59479;51.902;8.212;2023-03-17T01:27:41;100490.63;;;7.93
71630;BMP280;59479;51.902;8.212;2023-03-17T01:32:43;100484.78;;;7.95
71630;BMP280;59479;51.902;8.212;2023-03-17T01:35:09;100483.09;;;7.91
71630;BMP280;59479;51.902;8.212;2023-03-17T01:37:35;100475.59;;;7.91
71630;BMP280;59479;51.902;8.212;2023-03-17T01:40:02;100483.13;;;7.94
71630;BMP280;59479;51.902;8.212;2023-03-17T01:42:28;100466.41;;;7.93
71630;BMP280;59479;51.902;8.212;2023-03-17T01:45:01;100460.53;;;7.88
71630;BMP280;59479;51.902;8.212;2023-03-17T01:47:28;100453.03;;;7.87
71630;BMP280;59479;51.902;8.212;2023-03-17T01:50:04;100448.88;;;7.90
71630;BMP280;59479;51.902;8.212;2023-03-17T01:52:34;100449.72;;;7.88
71630;BMP280;59479;51.902;8.212;2023-03-17T01:55:08;100453.06;;;7.91
71630;BMP280;59479;51.902;8.212;2023-03-17T01:57:42;100453.06;;;7.91
71630;BMP280;59479;51.902;8.212;2023-03-17T02:00:13;100451.44;;;7.96
71630;BMP280;59479;51.902;8.212;2023-03-17T02:02:42;100456.47;;;7.99
71630;BMP280;59479;51.902;8.212;2023-03-17T02:05:10;100456.47;;;8.02
71630;BMP280;59479;51.902;8.212;2023-03-17T02:07:35;100453.94;;;8.00
71630;BMP280;59479;51.902;8.212;2023-03-17T02:10:03;100454.78;;;7.98
71630;BMP280;59479;51.902;8.212;2023-03-17T02:12:29;100450.59;;;7.97
71630;BMP280;59479;51.902;8.212;2023-03-17T02:14:55;100454.72;;;7.92
71630;BMP280;59479;51.902;8.212;2023-03-17T02:17:23;100462.22;;;7.88
71630;BMP280;59479;51.902;8.212;2023-03-17T02:19:49;100466.28;;;7.78
71630;BMP280;59479;51.902;8.212;2023-03-17T02:22:16;100460.44;;;7.75
71630;BMP280;59479;51.902;8.212;2023-03-17T02:24:46;100455.41;;;7.73
71630;BMP280;59479;51.902;8.212;2023-03-17T02:27:16;100459.59;;;7.77
71630;BMP280;59479;51.902;8.212;2023-03-17T02:29:42;100465.38;;;7.70
71630;BMP280;59479;51.902;8.212;2023-03-17T02:32:11;100467.88;;;7.67
71630;BMP280;59479;51.902;8.212;2023-03-17T02:34:37;100461.16;;;7.63
71630;BMP280;59479;51.902;8.212;2023-03-17T02:37:03;100454.53;;;7.68
71630;BMP280;59479;51.902;8.212;2023-03-17T02:39:29;100453.72;;;7.69
71630;BMP280;59479;51.902;8.212;2023-03-17T02:41:54;100442.88;;;7.67
71630;BMP280;59479;51.902;8.212;2023-03-17T02:44:20;100446.22;;;7.69
71630;BMP280;59479;51.902;8.212;2023-03-17T02:46:45;100434.47;;;7.59
71630;BMP280;59479;51.902;8.212;2023-03-17T02:49:11;100435.25;;;7.54
71630;BMP280;59479;51.902;8.212;2023-03-17T02:51:37;100434.41;;;7.56
71630;BMP280;59479;51.902;8.212;2023-03-17T02:54:03;100440.22;;;7.51
71630;BMP280;59479;51.902;8.212;2023-03-17T02:57:00;100420.19;;;7.50
71630;BMP280;59479;51.902;8.212;2023-03-17T02:59:26;100400.19;;;7.50
71630;BMP280;59479;51.902;8.212;2023-03-17T03:01:52;100398.47;;;7.43
71630;BMP280;59479;51.902;8.212;2023-03-17T03:04:19;100401.81;;;7.46
71630;BMP280;59479;51.902;8.212;2023-03-17T03:06:45;100394.34;;;7.51
71630;BMP280;59479;51.902;8.212;2023-03-17T03:09:11;100398.50;;;7.49
71630;BMP280;59479;51.902;8.212;2023-03-17T03:11:37;100396.03;;;7.52
71630;BMP280;59479;51.902;8.212;2023-03-17T03:14:03;100384.34;;;7.51
71630;BMP280;59479;51.902;8.212;2023-03-17T03:16:29;100377.63;;;7.45
71630;BMP280;59479;51.902;8.212;2023-03-17T03:18:54;100381.03;;;7.52
71630;BMP280;59479;51.902;8.212;2023-03-17T03:21:20;100380.97;;;7.46
71630;BMP280;59479;51.902;8.212;2023-03-17T03:23:46;100384.28;;;7.42
71630;BMP280;59479;51.902;8.212;2023-03-17T03:26:11;100382.69;;;7.50
71630;BMP280;59479;51.902;8.212;2023-03-17T03:28:37;100378.47;;;7.46
71630;BMP280;59479;51.902;8.212;2023-03-17T03:31:02;100381.84;;;7.49
71630;BMP280;59479;51.902;8.212;2023-03-17T03:33:28;100384.34;;;7.48
71630;BMP280;59479;51.902;8.212;2023-03-17T03:35:53;100385.13;;;7.44
71630;BMP280;59479;51.902;8.212;2023-03-17T03:38:19;100390.97;;;7.43
71630;BMP280;59479;51.902;8.212;2023-03-17T03:40:44;100390.97;;;7.43
71630;BMP280;59479;51.902;8.212;2023-03-17T03:43:10;100380.13;;;7.44
71630;BMP280;59479;51.902;8.212;2023-03-17T03:45:35;100383.47;;;7.43
71630;BMP280;59479;51.902;8.212;2023-03-17T03:48:01;100386.03;;;7.53
71630;BMP280;59479;51.902;8.212;2023-03-17T03:50:26;100381.84;;;7.51
71630;BMP280;59479;51.902;8.212;2023-03-17T03:52:51;100375.22;;;7.55
71630;BMP280;59479;51.902;8.212;2023-03-17T03:55:17;100383.56;;;7.56
71630;BMP280;59479;51.902;8.212;2023-03-17T03:57:43;100382.72;;;7.51
71630;BMP280;59479;51.902;8.212;2023-03-17T04:00:09;100396.84;;;7.51
71630;BMP280;59479;51.902;8.212;2023-03-17T04:02:35;100402.75;;;7.57
71630;BMP280;59479;51.902;8.212;2023-03-17T04:05:01;100402.75;;;7.58
71630;BMP280;59479;51.902;8.212;2023-03-17T04:07:27;100406.09;;;7.60
71630;BMP280;59479;51.902;8.212;2023-03-17T04:09:52;100410.25;;;7.58
71630;BMP280;59479;51.902;8.212;2023-03-17T04:12:17;100407.72;;;7.53
71630;BMP280;59479;51.902;8.212;2023-03-17T04:14:43;100397.72;;;7.53
71630;BMP280;59479;51.902;8.212;2023-03-17T04:17:12;100395.97;;;7.47
71630;BMP280;59479;51.902;8.212;2023-03-17T04:19:38;100380.13;;;7.44
71630;BMP280;59479;51.902;8.212;2023-03-17T04:22:05;100385.06;;;7.36
71630;BMP280;59479;51.902;8.212;2023-03-17T04:24:32;100389.25;;;7.36
71630;BMP280;59479;51.902;8.212;2023-03-17T04:26:59;100389.25;;;7.39
71630;BMP280;59479;51.902;8.212;2023-03-17T04:29:24;100376.75;;;7.39
71630;BMP280;59479;51.902;8.212;2023-03-17T04:31:49;100390.09;;;7.39
71630;BMP280;59479;51.902;8.212;2023-03-17T04:34:16;100384.25;;;7.40
71630;BMP280;59479;51.902;8.212;2023-03-17T04:39:24;100380.09;;;7.38
71630;BMP280;59479;51.902;8.212;2023-03-17T04:41:50;100370.88;;;7.35
71630;BMP280;59479;51.902;8.212;2023-03-17T04:44:15;100374.22;;;7.33
71630;BMP280;59479;51.902;8.212;2023-03-17T04:46:41;100371.59;;;7.21
71630;BMP280;59479;51.902;8.212;2023-03-17T04:49:17;100390.72;;;7.17
71630;BMP280;59479;51.902;8.212;2023-03-17T04:51:48;100380.75;;;7.20
71630;BMP280;59479;51.902;8.212;2023-03-17T04:54:16;100385.72;;;7.19
71630;BMP280;59479;51.902;8.212;2023-03-17T04:56:42;100376.50;;;7.13
71630;BMP280;59479;51.902;8.212;2023-03-17T04:59:07;100369.88;;;7.15
71630;BMP280;59479;51.902;8.212;2023-03-17T05:01:33;100375.72;;;7.16
71630;BMP280;59479;51.902;8.212;2023-03-17T05:04:01;100380.69;;;7.13
71630;BMP280;59479;51.902;8.212;2023-03-17T05:06:47;100369.81;;;7.08
71630;BMP280;59479;51.902;8.212;2023-03-17T05:09:21;100371.34;;;6.97
71630;BMP280;59479;51.902;8.212;2023-03-17T05:12:36;100364.66;;;6.93
71630;BMP280;59479;51.902;8.212;2023-03-17T05:15:07;100367.09;;;6.89
71630;BMP280;59479;51.902;8.212;2023-03-17T05:17:32;100376.25;;;6.88
71630;BMP280;59479;51.902;8.212;2023-03-17T05:19:58;100379.63;;;6.93
71630;BMP280;59479;51.902;8.212;2023-03-17T05:22:23;100385.44;;;6.89
71630;BMP280;59479;51.902;8.212;2023-03-17T05:24:49;100384.56;;;6.89
71630;BMP280;59479;51.902;8.212;2023-03-17T05:27:17;100378.75;;;6.88
71630;BMP280;59479;51.902;8.212;2023-03-17T05:29:44;100383.72;;;6.85
71630;BMP280;59479;51.902;8.212;2023-03-17T05:32:10;100372.09;;;6.86
71630;BMP280;59479;51.902;8.212;2023-03-17T05:34:35;100363.69;;;6.82
71630;BMP280;59479;51.902;8.212;2023-03-17T05:37:01;100362.91;;;6.86
71630;BMP280;59479;51.902;8.212;2023-03-17T05:39:36;100363.78;;;6.90
71630;BMP280;59479;51.902;8.212;2023-03-17T05:42:04;100358.00;;;6.95
71630;BMP280;59479;51.902;8.212;2023-03-17T05:44:33;100365.53;;;6.98
71630;BMP280;59479;51.902;8.212;2023-03-17T05:47:04;100358.84;;;6.97
71630;BMP280;59479;51.902;8.212;2023-03-17T05:49:39;100356.31;;;6.93
71630;BMP280;59479;51.902;8.212;2023-03-17T05:52:04;100347.16;;;6.93
71630;BMP280;59479;51.902;8.212;2023-03-17T05:54:30;100355.50;;;6.95
71630;BMP280;59479;51.902;8.212;2023-03-17T05:56:55;100357.16;;;6.93
71630;BMP280;59479;51.902;8.212;2023-03-17T05:59:21;100352.13;;;6.90
71630;BMP280;59479;51.902;8.212;2023-03-17T06:01:47;100350.50;;;6.95
71630;BMP280;59479;51.902;8.212;2023-03-17T06:04:16;100355.56;;;7.00
71630;BMP280;59479;51.902;8.212;2023-03-17T06:06:41;100342.22;;;6.96
71630;BMP280;59479;51.902;8.212;2023-03-17T06:09:06;100353.00;;;6.94
71630;BMP280;59479;51.902;8.212;2023-03-17T06:11:37;100344.59;;;6.89
71630;BMP280;59479;51.902;8.212;2023-03-17T06:14:08;100334.69;;;6.93
71630;BMP280;59479;51.902;8.212;2023-03-17T06:16:37;100337.19;;;6.95
71630;BMP280;59479;51.902;8.212;2023-03-17T06:19:12;100335.53;;;6.95
71630;BMP280;59479;51.902;8.212;2023-03-17T06:21:41;100342.22;;;6.96
71630;BMP280;59479;51.902;8.212;2023-03-17T06:24:09;100338.88;;;6.97
71630;BMP280;59479;51.902;8.212;2023-03-17T06:26:43;100343.91;;;7.02
71630;BMP280;59479;51.902;8.212;2023-03-17T06:29:11;100338.94;;;7.03
71630;BMP280;59479;51.902;8.212;2023-03-17T06:31:39;100343.94;;;7.03
71630;BMP280;59479;51.902;8.212;2023-03-17T06:34:06;100348.13;;;7.07
71630;BMP280;59479;51.902;8.212;2023-03-17T06:36:32;100351.50;;;7.09
71630;BMP280;59479;51.902;8.212;2023-03-17T06:38:58;100351.50;;;7.10
71630;BMP280;59479;51.902;8.212;2023-03-17T06:41:24;100359.88;;;7.15
71630;BMP280;59479;51.902;8.212;2023-03-17T06:43:50;100355.72;;;7.19
71630;BMP280;59479;51.902;8.212;2023-03-17T06:46:15;100357.34;;;7.11
71630;BMP280;59479;51.902;8.212;2023-03-17T06:48:41;100354.84;;;7.11
71630;BMP280;59479;51.902;8.212;2023-03-17T06:51:07;100363.22;;;7.14
71630;BMP280;59479;51.902;8.212;2023-03-17T06:53:33;100359.88;;;7.17
71630;BMP280;59479;51.902;8.212;2023-03-17T06:55:58;100352.44;;;7.23
71630;BMP280;59479;51.902;8.212;2023-03-17T06:58:23;100361.63;;;7.22
71630;BMP280;59479;51.902;8.212;2023-03-17T07:00:49;100364.09;;;7.24
71630;BMP280;59479;51.902;8.212;2023-03-17T07:03:18;100356.53;;;7.15
71630;BMP280;59479;51.902;8.212;2023-03-17T07:05:44;100357.50;;;7.29
71630;BMP280;59479;51.902;8.212;2023-03-17T07:08:10;100359.16;;;7.28
71630;BMP280;59479;51.902;8.212;2023-03-17T07:10:36;100362.59;;;7.38
71630;BMP280;59479;51.902;8.212;2023-03-17T07:13:01;100355.13;;;7.45
71630;BMP280;59479;51.902;8.212;2023-03-17T07:15:27;100357.59;;;7.38
71630;BMP280;59479;51.902;8.212;2023-03-17T07:17:55;100353.41;;;7.37
71630;BMP280;59479;51.902;8.212;2023-03-17T07:20:20;100359.34;;;7.51
71630;BMP280;59479;51.902;8.212;2023-03-17T07:22:46;100352.66;;;7.47
71630;BMP280;59479;51.902;8.212;2023-03-17T07:25:11;100361.84;;;7.51
71630;BMP280;59479;51.902;8.212;2023-03-17T07:27:37;100362.72;;;7.55
71630;BMP280;59479;51.902;8.212;2023-03-17T07:30:03;100354.44;;;7.59
71630;BMP280;59479;51.902;8.212;2023-03-17T07:32:29;100348.59;;;7.60
71630;BMP280;59479;51.902;8.212;2023-03-17T07:34:55;100347.81;;;7.67
71630;BMP280;59479;51.902;8.212;2023-03-17T07:37:21;100344.47;;;7.62
71630;BMP280;59479;51.902;8.212;2023-03-17T07:39:46;100352.81;;;7.70
71630;BMP280;59479;51.902;8.212;2023-03-17T07:42:13;100352.84;;;7.73
71630;BMP280;59479;51.902;8.212;2023-03-17T07:44:39;100359.56;;;7.80
71630;BMP280;59479;51.902;8.212;2023-03-17T07:47:06;100352.09;;;7.85
71630;BMP280;59479;51.902;8.212;2023-03-17T07:49:31;100356.28;;;7.87
71630;BMP280;59479;51.902;8.212;2023-03-17T07:51:57;100353.81;;;7.92
71630;BMP280;59479;51.902;8.212;2023-03-17T07:54:23;100359.69;;;7.98
71630;BMP280;59479;51.902;8.212;2023-03-17T07:56:49;100358.03;;;8.00
71630;BMP280;59479;51.902;8.212;2023-03-17T07:59:14;100343.13;;;8.15
71630;BMP280;59479;51.902;8.212;2023-03-17T08:01:40;100348.16;;;8.24
71630;BMP280;59479;51.902;8.212;2023-03-17T08:04:05;100339.00;;;8.23
71630;BMP280;59479;51.902;8.212;2023-03-17T08:06:31;100333.22;;;8.34
71630;BMP280;59479;51.902;8.212;2023-03-17T08:08:57;100333.25;;;8.41
71630;BMP280;59479;51.902;8.212;2023-03-17T08:11:22;100334.97;;;8.54
71630;BMP280;59479;51.902;8.212;2023-03-17T08:13:48;100334.16;;;8.61
71630;BMP280;59479;51.902;8.212;2023-03-17T08:16:15;100338.34;;;8.70
71630;BMP280;59479;51.902;8.212;2023-03-17T08:18:41;100342.53;;;8.77
71630;BMP280;59479;51.902;8.212;2023-03-17T08:21:07;100326.69;;;8.79
71630;BMP280;59479;51.902;8.212;2023-03-17T08:23:33;100331.72;;;8.91
71630;BMP280;59479;51.902;8.212;2023-03-17T08:26:00;100330.91;;;8.96
71630;BMP280;59479;51.902;8.212;2023-03-17T08:28:26;100326.75;;;9.06
71630;BMP280;59479;51.902;8.212;2023-03-17T08:30:52;100327.59;;;9.12
71630;BMP280;59479;51.902;8.212;2023-03-17T08:33:19;100323.41;;;9.13
71630;BMP280;59479;51.902;8.212;2023-03-17T08:35:45;100314.22;;;9.19
71630;BMP280;59479;51.902;8.212;2023-03-17T08:38:11;100315.03;;;9.31
71630;BMP280;59479;51.902;8.212;2023-03-17T08:40:38;100312.53;;;9.45
71630;BMP280;59479;51.902;8.212;2023-03-17T08:43:07;100301.66;;;9.50
71630;BMP280;59479;51.902;8.212;2023-03-17T08:45:32;100299.16;;;9.58
71630;BMP280;59479;51.902;8.212;2023-03-17T08:47:58;100297.47;;;9.60
71630;BMP280;59479;51.902;8.212;2023-03-17T08:50:24;100299.94;;;9.67
71630;BMP280;59479;51.902;8.212;2023-03-17T08:52:50;100296.63;;;9.74
71630;BMP280;59479;51.902;8.212;2023-03-17T08:55:16;100299.97;;;9.79
71630;BMP280;59479;51.902;8.212;2023-03-17T08:57:43;100300.78;;;9.84
71630;BMP280;59479;51.902;8.212;2023-03-17T09:00:11;100309.13;;;9.98
71630;BMP280;59479;51.902;8.212;2023-03-17T09:02:38;100306.59;;;10.08
71630;BMP280;59479;51.902;8.212;2023-03-17T09:05:05;100304.94;;;10.07
71630;BMP280;59479;51.902;8.212;2023-03-17T09:07:31;100320.78;;;10.18
71630;BMP280;59479;51.902;8.212;2023-03-17T09:09:57;100329.16;;;10.21
71630;BMP280;59479;51.902;8.212;2023-03-17T09:12:23;100328.28;;;10.28
71630;BMP280;59479;51.902;8.212;2023-03-17T09:14:48;100337.47;;;10.35
71630;BMP280;59479;51.902;8.212;2023-03-17T09:17:14;100340.78;;;10.40
71630;BMP280;59479;51.902;8.212;2023-03-17T09:19:40;100346.63;;;10.51
71630;BMP280;59479;51.902;8.212;2023-03-17T09:22:06;100338.22;;;10.55
71630;BMP280;59479;51.902;8.212;2023-03-17T09:24:32;100340.72;;;10.55
71630;BMP280;59479;51.902;8.212;2023-03-17T09:26:57;100334.88;;;10.56
71630;BMP280;59479;51.902;8.212;2023-03-17T09:29:25;100332.31;;;10.66
71630;BMP280;59479;51.902;8.212;2023-03-17T09:31:53;100323.00;;;10.82
71630;BMP280;59479;51.902;8.212;2023-03-17T09:34:19;100328.88;;;10.84
71630;BMP280;59479;51.902;8.212;2023-03-17T09:36:44;100315.34;;;11.01
71630;BMP280;59479;51.902;8.212;2023-03-17T09:39:10;100318.66;;;11.06
71630;BMP280;59479;51.902;8.212;2023-03-17T09:49:49;100305.88;;;11.34
71630;BMP280;59479;51.902;8.212;2023-03-17T09:52:26;100307.50;;;11.35
71630;BMP280;59479;51.902;8.212;2023-03-17T09:54:53;100308.28;;;11.44
71630;BMP280;59479;51.902;8.212;2023-03-17T09:57:37;100302.44;;;11.47
71630;BMP280;59479;51.902;8.212;2023-03-17T10:02:33;100300.53;;;11.70
71630;BMP280;59479;51.902;8.212;2023-03-17T10:05:16;100297.16;;;11.74
71630;BMP280;59479;51.902;8.212;2023-03-17T10:07:55;100290.28;;;11.87
71630;BMP280;59479;51.902;8.212;2023-03-17T10:13:46;100282.47;;;12.08
71630;BMP280;59479;51.902;8.212;2023-03-17T10:16:19;100285.75;;;12.16
71630;BMP280;59479;51.902;8.212;2023-03-17T10:19:11;100279.00;;;12.18
71630;BMP280;59479;51.902;8.212;2023-03-17T10:25:30;100285.41;;;12.44
71630;BMP280;59479;51.902;8.212;2023-03-17T10:28:34;100285.25;;;12.55
71630;BMP280;59479;51.902;8.212;2023-03-17T10:31:45;100278.31;;;12.70
71630;BMP280;59479;51.902;8.212;2023-03-17T10:37:33;100277.34;;;12.81
71630;BMP280;59479;51.902;8.212;2023-03-17T10:40:27;100279.72;;;12.92
71630;BMP280;59479;51.902;8.212;2023-03-17T10:43:09;100279.44;;;13.08
71630;BMP280;59479;51.902;8.212;2023-03-17T10:46:03;100294.34;;;13.23
71630;BMP280;59479;51.902;8.212;2023-03-17T10:48:48;100279.94;;;13.31
71630;BMP280;59479;51.902;8.212;2023-03-17T10:52:00;100272.97;;;13.43
71630;BMP280;59479;51.902;8.212;2023-03-17T10:54:37;100277.88;;;13.53
71630;BMP280;59479;51.902;8.212;2023-03-17T10:57:14;100271.88;;;13.57
71630;BMP280;59479;51.902;8.212;2023-03-17T10:59:54;100273.44;;;13.64
71630;BMP280;59479;51.902;8.212;2023-03-17T11:02:43;100271.63;;;13.72
71630;BMP280;59479;51.902;8.212;2023-03-17T11:05:33;100272.53;;;13.68
71630;BMP280;59479;51.902;8.212;2023-03-17T11:08:18;100270.63;;;13.79
71630;BMP280;59479;51.902;8.212;2023-03-17T11:10:44;100261.97;;;13.92
71630;BMP280;59479;51.902;8.212;2023-03-17T11:13:36;100262.81;;;13.92
71630;BMP280;59479;51.902;8.212;2023-03-17T11:16:23;100260.91;;;14.05
71630;BMP280;59479;51.902;8.212;2023-03-17T11:19:14;100250.03;;;14.00
71630;BMP280;59479;51.902;8.212;2023-03-17T11:22:27;100253.25;;;14.08
71630;BMP280;59479;51.902;8.212;2023-03-17T11:25:17;100250.41;;;14.23
71630;BMP280;59479;51.902;8.212;2023-03-17T11:28:12;100247.72;;;14.31
71630;BMP280;59479;51.902;8.212;2023-03-17T11:31:20;100254.97;;;14.46
71630;BMP280;59479;51.902;8.212;2023-03-17T11:34:07;100250.72;;;14.48
71630;BMP280;59479;51.902;8.212;2023-03-17T11:39:21;100252.84;;;14.65
71630;BMP280;59479;51.902;8.212;2023-03-17T11:56:17;100236.16;;;14.94
71630;BMP280;59479;51.902;8.212;2023-03-17T11:58:46;100230.84;;;15.04
71630;BMP280;59479;51.902;8.212;2023-03-17T12:01:17;100228.03;;;15.14
71630;BMP280;59479;51.902;8.212;2023-03-17T12:03:48;100230.72;;;15.10
71630;BMP280;59479;51.902;8.212;2023-03-17T12:08:52;100224.38;;;15.27
71630;BMP280;59479;51.902;8.212;2023-03-17T12:11:23;100223.28;;;15.37
71630;BMP280;59479;51.902;8.212;2023-03-17T12:13:55;100218.91;;;15.44
71630;BMP280;59479;51.902;8.212;2023-03-17T12:16:37;100212.72;;;15.54
71630;BMP280;59479;51.902;8.212;2023-03-17T12:19:17;100219.72;;;15.44
71630;BMP280;59479;51.902;8.212;2023-03-17T12:21:47;100221.06;;;15.57
71630;BMP280;59479;51.902;8.212;2023-03-17T12:24:21;100224.72;;;15.47
71630;BMP280;59479;51.902;8.212;2023-03-17T12:26:56;100215.03;;;15.61
71630;BMP280;59479;51.902;8.212;2023-03-17T12:29:38;100204.09;;;15.60
71630;BMP280;59479;51.902;8.212;2023-03-17T12:34:51;100202.34;;;15.62
71630;BMP280;59479;51.902;8.212;2023-03-17T12:37:17;100213.84;;;15.74
71630;BMP280;59479;51.902;8.212;2023-03-17T12:39:51;100207.78;;;15.79
71630;BMP280;59479;51.902;8.212;2023-03-17T12:42:51;100207.44;;;15.91
71630;BMP280;59479;51.902;8.212;2023-03-17T12:45:42;100206.69;;;15.88
71630;BMP280;59479;51.902;8.212;2023-03-17T12:51:17;100201.88;;;16.07
71630;BMP280;59479;51.902;8.212;2023-03-17T12:53:50;100204.38;;;16.09
71630;BMP280;59479;51.902;8.212;2023-03-17T12:56:36;100197.22;;;16.23
71630;BMP280;59479;51.902;8.212;2023-03-17T12:59:14;100194.25;;;16.38
71630;BMP280;59479;51.902;8.212;2023-03-17T13:02:23;100182.91;;;16.22
71630;BMP280;59479;51.902;8.212;2023-03-17T13:05:14;100191.31;;;16.24
71630;BMP280;59479;51.902;8.212;2023-03-17T13:07:51;100189.63;;;16.23
71630;BMP280;59479;51.902;8.212;2023-03-17T13:13:43;100190.56;;;16.19
71630;BMP280;59479;51.902;8.212;2023-03-17T13:16:45;100194.69;;;16.23
71630;BMP280;59479;51.902;8.212;2023-03-17T13:19:20;100196.75;;;16.39
71630;BMP280;59479;51.902;8.212;2023-03-17T13:24:48;100182.00;;;16.51
71630;BMP280;59479;51.902;8.212;2023-03-17T13:30:41;100155.69;;;16.54
71630;BMP280;59479;51.902;8.212;2023-03-17T13:38:25;100159.47;;;16.68
71630;BMP280;59479;51.902;8.212;2023-03-17T13:43:55;100147.59;;;16.69
71630;BMP280;59479;51.902;8.212;2023-03-17T13:46:30;100154.72;;;16.83
71630;BMP280;59479;51.902;8.212;2023-03-17T13:49:02;100145.47;;;16.81
71630;BMP280;59479;51.902;8.212;2023-03-17T13:51:32;100141.91;;;16.88
71630;BMP280;59479;51.902;8.212;2023-03-17T13:56:51;100155.31;;;16.91
71630;BMP280;59479;51.902;8.212;2023-03-17T14:02:14;100137.31;;;16.97
71630;BMP280;59479;51.902;8.212;2023-03-17T14:05:02;100132.72;;;17.08
71630;BMP280;59479;51.902;8.212;2023-03-17T14:07:37;100136.78;;;16.89
71630;BMP280;59479;51.902;8.212;2023-03-17T14:10:06;100133.09;;;16.98
71630;BMP280;59479;51.902;8.212;2023-03-17T14:12:45;100128.63;;;17.04
71630;BMP280;59479;51.902;8.212;2023-03-17T14:15:36;100133.78;;;17.03
71630;BMP280;59479;51.902;8.212;2023-03-17T14:18:26;100128.22;;;17.16
71630;BMP280;59479;51.902;8.212;2023-03-17T14:20:56;100120.84;;;17.09
71630;BMP280;59479;51.902;8.212;2023-03-17T14:23:23;100125.22;;;17.05
71630;BMP280;59479;51.902;8.212;2023-03-17T14:25:48;100114.69;;;17.16
71630;BMP280;59479;51.902;8.212;2023-03-17T14:28:16;100119.22;;;17.08
71630;BMP280;59479;51.902;8.212;2023-03-17T14:30:51;100125.00;;;17.11
71630;BMP280;59479;51.902;8.212;2023-03-17T14:33:28;100125.00;;;17.11
71630;BMP280;59479;51.902;8.212;2023-03-17T14:35:57;100123.34;;;17.10
71630;BMP280;59479;51.902;8.212;2023-03-17T14:38:26;100119.00;;;17.14
71630;BMP280;59479;51.902;8.212;2023-03-17T14:41:25;100117.16;;;17.19
71630;BMP280;59479;51.902;8.212;2023-03-17T14:43:52;100116.22;;;17.21
71630;BMP280;59479;51.902;8.212;2023-03-17T14:46:23;100122.69;;;17.29
71630;BMP280;59479;51.902;8.212;2023-03-17T14:48:51;100117.81;;;17.24
71630;BMP280;59479;51.902;8.212;2023-03-17T14:51:32;100115.09;;;17.29
71630;BMP280;59479;51.902;8.212;2023-03-17T14:54:02;100110.38;;;17.18
71630;BMP280;59479;51.902;8.212;2023-03-17T14:56:36;100103.13;;;17.07
71630;BMP280;59479;51.902;8.212;2023-03-17T14:59:29;100113.00;;;17.16
71630;BMP280;59479;51.902;8.212;2023-03-17T15:01:58;100109.56;;;17.17
71630;BMP280;59479;51.902;8.212;2023-03-17T15:04:27;100111.25;;;17.18
71630;BMP280;59479;51.902;8.212;2023-03-17T15:06:54;100120.19;;;17.04
71630;BMP280;59479;51.902;8.212;2023-03-17T15:12:22;100112.59;;;17.28
71630;BMP280;59479;51.902;8.212;2023-03-17T15:15:03;100114.91;;;17.34
71630;BMP280;59479;51.902;8.212;2023-03-17T15:17:32;100107.25;;;17.11
71630;BMP280;59479;51.902;8.212;2023-03-17T15:20:01;100106.56;;;17.30
71630;BMP280;59479;51.902;8.212;2023-03-17T15:27:41;100106.84;;;17.46
71630;BMP280;59479;51.902;8.212;2023-03-17T15:30:08;100101.72;;;17.47
71630;BMP280;59479;51.902;8.212;2023-03-17T15:32:33;100105.78;;;17.53
71630;BMP280;59479;51.902;8.212;2023-03-17T15:34:59;100106.63;;;17.52
71630;BMP280;59479;51.902;8.212;2023-03-17T15:37:28;100106.41;;;17.58
71630;BMP280;59479;51.902;8.212;2023-03-17T15:39:53;100108.47;;;17.48
71630;BMP280;59479;51.902;8.212;2023-03-17T15:42:21;100098.34;;;17.47
71630;BMP280;59479;51.902;8.212;2023-03-17T15:44:47;100093.88;;;17.53
71630;BMP280;59479;51.902;8.212;2023-03-17T15:47:14;100093.94;;;17.52